Time;durP1;ratioP1;P1;durP2;ratioP2;P2;SDS_P1;SDS_P2;PMS_P1;PMS_P2;Temp;Humidity;BMP_temperature;BMP_pressure;BME280_temperature;BME280_humidity;BME280_pressure;Samples;Min_cycle;Max_cycle;Signal;HPM_P1;HPM_P2
2022/03/11 00:02:03;;;;;;;20.67;8.65;;;;;;;4.94;53.31;101707.88;4988046;28;20030;-66
2022/03/11 00:04:28;;;;;;;13.75;7.10;;;;;;;4.93;53.16;101706.09;4987554;28;20045;-66
2022/03/11 00:06:53;;;;;;;18.10;7.38;;;;;;;4.90;53.26;101700.84;4984292;28;20046;-69
2022/03/11 00:09:19;;;;;;;16.90;8.15;;;;;;;4.86;53.63;101705.47;4983289;28;20490;-71
2022/03/11 00:11:44;;;;;;;18.40;7.57;;;;;;;4.82;53.43;101698.41;4984382;28;20442;-66
2022/03/11 00:14:09;;;;;;;14.02;6.90;;;;;;;4.77;53.87;101693.16;4982383;28;20046;-65
2022/03/11 00:16:35;;;;;;;14.57;7.78;;;;;;;4.75;54.35;101694.16;4988604;28;20497;-71
2022/03/11 00:19:00;;;;;;;17.10;7.65;;;;;;;4.69;54.21;101691.66;4998182;28;20041;-71
2022/03/11 00:21:26;;;;;;;16.60;7.43;;;;;;;4.66;54.55;101686.38;4982279;28;20173;-66
2022/03/11 00:23:52;;;;;;;18.00;8.63;;;;;;;4.60;54.69;101693.75;4986261;28;20134;-66
2022/03/11 00:26:17;;;;;;;17.45;7.72;;;;;;;4.55;54.24;101687.63;4986477;28;20065;-65
2022/03/11 00:28:42;;;;;;;15.98;7.60;;;;;;;4.54;54.40;101685.00;4981147;28;20042;-65
2022/03/11 00:31:08;;;;;;;14.18;6.75;;;;;;;4.52;54.55;101690.44;4986198;28;20034;-71
2022/03/11 00:33:34;;;;;;;21.13;8.98;;;;;;;4.53;54.33;101689.50;4983733;28;20093;-67
2022/03/11 00:36:00;;;;;;;14.68;7.20;;;;;;;4.51;55.00;101691.34;4975672;28;20665;-66
2022/03/11 00:38:25;;;;;;;14.20;7.18;;;;;;;4.47;54.54;101681.59;4984217;28;20070;-72
2022/03/11 00:40:56;;;;;;;17.95;8.00;;;;;;;4.47;54.75;101684.31;4988767;28;20062;-65
2022/03/11 00:43:25;;;;;;;15.10;7.68;;;;;;;4.47;54.52;101683.44;4979809;28;20043;-69
2022/03/11 00:45:52;;;;;;;15.45;7.43;;;;;;;4.46;55.11;101681.69;4998201;28;20038;-71
2022/03/11 00:48:18;;;;;;;19.20;7.97;;;;;;;4.47;54.46;101680.72;4993578;28;20070;-66
2022/03/11 00:50:44;;;;;;;16.23;7.95;;;;;;;4.47;54.51;101681.59;4976574;28;20055;-72
2022/03/11 00:53:09;;;;;;;13.55;7.90;;;;;;;4.46;54.63;101674.47;4986092;28;20030;-73
2022/03/11 00:55:35;;;;;;;17.90;8.02;;;;;;;4.47;54.69;101678.91;4984792;28;20037;-66
2022/03/11 00:58:00;;;;;;;15.05;7.85;;;;;;;4.48;54.60;101671.75;4986123;28;20061;-65
2022/03/11 01:00:26;;;;;;;13.65;7.80;;;;;;;4.43;54.61;101674.59;4980363;28;20041;-67
2022/03/11 01:02:52;;;;;;;15.52;8.00;;;;;;;4.44;54.72;101662.88;4986954;28;20049;-72
2022/03/11 01:05:18;;;;;;;20.17;8.57;;;;;;;4.42;54.65;101662.03;4979258;28;20038;-65
2022/03/11 01:08:06;;;;;;;16.98;8.38;;;;;;;4.42;54.92;101662.03;4976522;28;20541;-65
2022/03/11 01:10:32;;;;;;;16.75;8.18;;;;;;;4.40;54.86;101650.44;4984613;28;20054;-71
2022/03/11 01:12:57;;;;;;;15.00;7.20;;;;;;;4.42;54.70;101653.94;4986287;28;20034;-65
2022/03/11 01:15:23;;;;;;;15.32;8.13;;;;;;;4.43;54.91;101650.34;4995283;28;20444;-72
2022/03/11 01:17:48;;;;;;;14.98;7.22;;;;;;;4.42;54.55;101653.94;5004346;28;20116;-72
2022/03/11 01:20:14;;;;;;;13.85;7.07;;;;;;;4.39;54.72;101646.00;4990632;28;20042;-67
2022/03/11 01:22:40;;;;;;;16.60;7.63;;;;;;;4.39;54.47;101642.41;5002798;28;20109;-66
2022/03/11 01:25:06;;;;;;;15.27;7.90;;;;;;;4.40;54.96;101639.66;4969475;28;20124;-70
2022/03/11 01:27:32;;;;;;;16.17;7.65;;;;;;;4.37;54.52;101630.81;4983966;28;20284;-72
2022/03/11 01:29:58;;;;;;;16.42;8.10;;;;;;;4.39;54.66;101627.13;4979820;28;20031;-71
2022/03/11 01:32:23;;;;;;;14.38;7.25;;;;;;;4.40;54.57;101630.69;4984952;28;20039;-70
2022/03/11 01:34:49;;;;;;;16.27;7.97;;;;;;;4.36;55.00;101627.22;4976974;28;20042;-72
2022/03/11 01:37:14;;;;;;;20.50;7.93;;;;;;;4.37;54.36;101625.41;4982050;28;20022;-73
2022/03/11 01:39:40;;;;;;;17.15;7.85;;;;;;;4.36;54.69;101624.53;4990339;28;20512;-73
2022/03/11 01:42:06;;;;;;;17.15;8.43;;;;;;;4.35;54.72;101615.56;5001155;28;20045;-65
2022/03/11 01:44:31;;;;;;;15.73;7.63;;;;;;;4.32;54.73;101612.09;4988803;28;20022;-70
2022/03/11 01:46:57;;;;;;;18.65;7.32;;;;;;;4.32;54.58;101612.09;5001242;28;20042;-72
2022/03/11 01:49:22;;;;;;;17.05;7.80;;;;;;;4.30;55.01;101605.91;4988656;28;20082;-67
2022/03/11 01:51:48;;;;;;;15.88;8.50;;;;;;;4.30;54.67;101605.91;4985254;28;20030;-66
2022/03/11 01:54:14;;;;;;;15.13;7.43;;;;;;;4.29;54.60;101601.41;4984648;28;20096;-72
2022/03/11 01:56:40;;;;;;;17.95;7.88;;;;;;;4.29;54.19;101599.63;4991361;28;20037;-66
2022/03/11 01:59:08;;;;;;;13.68;7.40;;;;;;;4.26;55.04;101591.66;4995279;28;20426;-65
2022/03/11 02:01:33;;;;;;;19.40;8.13;;;;;;;4.21;55.17;101585.53;4999492;28;20034;-71
2022/03/11 02:03:59;;;;;;;15.95;7.43;;;;;;;4.23;54.81;101588.19;5005132;28;20037;-65
2022/03/11 02:06:28;;;;;;;18.30;8.43;;;;;;;4.22;55.09;101583.72;4997813;28;20034;-66
2022/03/11 02:08:55;;;;;;;14.43;7.18;;;;;;;4.20;55.09;101572.13;4995095;28;20061;-70
2022/03/11 02:11:21;;;;;;;13.70;7.15;;;;;;;4.17;54.99;101572.22;4996617;28;20044;-65
2022/03/11 02:13:59;;;;;;;14.85;8.43;;;;;;;4.15;54.81;101568.69;4993317;28;20038;-69
2022/03/11 02:16:36;;;;;;;17.92;8.50;;;;;;;4.13;54.87;101566.06;4998121;28;20489;-72
2022/03/11 02:19:01;;;;;;;14.43;7.43;;;;;;;4.09;55.04;101562.59;4989238;28;20042;-72
2022/03/11 02:21:27;;;;;;;16.33;8.23;;;;;;;4.07;55.08;101555.50;4990007;28;20092;-65
2022/03/11 02:23:54;;;;;;;19.40;8.23;;;;;;;4.05;55.58;101557.38;4995710;28;20041;-65
2022/03/11 02:26:21;;;;;;;14.30;7.78;;;;;;;4.02;55.13;101554.78;4988314;28;20049;-70
2022/03/11 02:28:49;;;;;;;14.70;7.97;;;;;;;4.01;55.09;101550.31;4981053;28;20049;-66
2022/03/11 02:31:15;;;;;;;17.88;8.25;;;;;;;4.00;55.00;101541.38;4985158;28;20038;-71
2022/03/11 02:33:40;;;;;;;12.65;7.07;;;;;;;3.97;55.25;101546.00;4990060;28;20026;-66
2022/03/11 02:36:06;;;;;;;14.00;8.25;;;;;;;3.97;55.02;101543.31;4979061;28;20301;-72
2022/03/11 02:38:32;;;;;;;16.00;8.32;;;;;;;3.96;55.04;101538.81;4986074;28;20532;-67
2022/03/11 02:40:57;;;;;;;12.82;6.93;;;;;;;3.96;55.19;101530.75;4984639;28;20364;-65
2022/03/11 02:43:24;;;;;;;14.88;8.02;;;;;;;3.94;54.91;101538.00;4987353;28;20045;-67
2022/03/11 02:45:50;;;;;;;16.20;8.45;;;;;;;3.93;55.63;101533.56;4986494;28;20089;-71
2022/03/11 02:48:16;;;;;;;19.55;8.18;;;;;;;3.88;55.18;101528.34;4990025;28;20041;-70
2022/03/11 02:50:41;;;;;;;17.05;8.23;;;;;;;3.94;55.31;101532.63;4970609;28;20475;-71
2022/03/11 02:53:07;;;;;;;14.90;7.82;;;;;;;3.91;55.52;101528.22;4985018;28;20497;-66
2022/03/11 02:55:32;;;;;;;14.50;7.38;;;;;;;3.88;55.19;101533.72;4976569;28;20038;-72
2022/03/11 02:57:57;;;;;;;22.20;8.68;;;;;;;3.88;54.96;101527.47;4983471;28;20122;-72
2022/03/11 03:00:23;;;;;;;13.40;6.85;;;;;;;3.87;55.42;101523.91;4981648;28;20022;-72
2022/03/11 03:02:48;;;;;;;12.85;7.40;;;;;;;3.84;55.91;101518.59;4988527;28;20035;-69
2022/03/11 03:05:13;;;;;;;14.48;7.35;;;;;;;3.83;55.25;101520.41;4985696;28;20023;-64
2022/03/11 03:07:39;;;;;;;14.55;8.23;;;;;;;3.84;55.42;101524.88;4987836;28;20030;-66
2022/03/11 03:10:06;;;;;;;15.48;8.13;;;;;;;3.83;55.13;101523.13;4987744;28;20498;-66
2022/03/11 03:12:32;;;;;;;18.25;7.03;;;;;;;3.82;54.88;101515.06;4987941;28;20034;-68
2022/03/11 03:14:58;;;;;;;17.05;7.85;;;;;;;3.79;55.62;101516.06;4987552;28;20488;-72
2022/03/11 03:17:28;;;;;;;18.10;7.35;;;;;;;3.78;55.03;101518.81;4989231;28;20548;-71
2022/03/11 03:19:54;;;;;;;15.10;8.13;;;;;;;3.79;55.27;101520.56;4985644;28;20034;-66
2022/03/11 03:22:19;;;;;;;15.02;7.93;;;;;;;3.75;55.16;101517.09;4985895;28;20081;-65
2022/03/11 03:24:44;;;;;;;18.80;7.55;;;;;;;3.72;55.48;101516.31;4985493;28;20097;-72
2022/03/11 03:27:10;;;;;;;19.75;7.63;;;;;;;3.71;55.61;101517.25;4989549;28;20026;-65
2022/03/11 03:29:36;;;;;;;13.07;6.80;;;;;;;3.68;55.35;101514.66;4979995;28;20117;-66
2022/03/11 03:32:02;;;;;;;14.75;7.22;;;;;;;3.65;55.62;101518.34;4984167;28;20052;-71
2022/03/11 03:34:29;;;;;;;16.35;7.13;;;;;;;3.66;55.46;101513.84;4987275;28;20043;-73
2022/03/11 03:36:57;;;;;;;16.25;8.27;;;;;;;3.62;55.46;101509.47;4986664;28;20030;-71
2022/03/11 03:39:23;;;;;;;15.02;7.22;;;;;;;3.57;56.43;101507.81;4981381;28;20034;-65
2022/03/11 03:41:52;;;;;;;15.60;8.00;;;;;;;3.53;55.83;101502.59;4988781;28;20088;-68
2022/03/11 03:44:17;;;;;;;18.67;7.93;;;;;;;3.50;56.17;101511.66;4986272;28;20518;-70
2022/03/11 03:46:42;;;;;;;16.52;7.57;;;;;;;3.49;55.84;101509.88;4988067;28;20030;-71
2022/03/11 03:49:08;;;;;;;18.73;7.75;;;;;;;3.48;56.24;101509.94;4988424;28;20037;-72
2022/03/11 03:51:34;;;;;;;11.88;7.13;;;;;;;3.45;56.27;101512.72;4978433;28;20069;-66
2022/03/11 03:54:00;;;;;;;16.38;7.50;;;;;;;3.42;56.22;101502.94;4986611;28;20061;-65
2022/03/11 03:56:25;;;;;;;16.73;7.57;;;;;;;3.41;56.23;101505.69;4975421;28;20105;-67
2022/03/11 03:58:51;;;;;;;18.45;8.38;;;;;;;3.40;56.31;101506.59;4987281;28;20038;-66
2022/03/11 04:01:16;;;;;;;13.27;7.65;;;;;;;3.36;56.37;101510.31;4986934;28;20034;-66
2022/03/11 04:03:43;;;;;;;16.63;7.28;;;;;;;3.33;56.24;101503.25;4984553;28;20037;-72
2022/03/11 04:06:08;;;;;;;15.70;7.53;;;;;;;3.32;56.46;101498.81;4969459;28;20427;-65
2022/03/11 04:08:33;;;;;;;15.40;7.38;;;;;;;3.28;56.73;101494.44;4983617;28;20035;-66
2022/03/11 04:10:59;;;;;;;14.73;7.60;;;;;;;3.23;57.16;101493.72;4982571;28;20092;-71
2022/03/11 04:13:24;;;;;;;20.65;7.47;;;;;;;3.22;56.96;101492.84;4982044;28;20034;-67
2022/03/11 04:15:49;;;;;;;17.20;8.18;;;;;;;3.23;57.14;101493.72;4983235;28;20564;-71
2022/03/11 04:18:15;;;;;;;18.20;7.28;;;;;;;3.23;56.44;101491.03;4987348;28;20038;-65
2022/03/11 04:20:41;;;;;;;15.80;8.32;;;;;;;3.26;56.67;101494.50;4986196;28;20049;-70
2022/03/11 04:23:07;;;;;;;12.63;6.72;;;;;;;3.26;56.43;101497.19;4984831;28;20038;-65
2022/03/11 04:25:32;;;;;;;17.67;7.10;;;;;;;3.30;56.79;101493.44;4987580;28;20102;-66
2022/03/11 04:27:57;;;;;;;17.08;7.30;;;;;;;3.32;56.51;101488.06;4984928;28;20045;-71
2022/03/11 04:30:23;;;;;;;15.00;6.82;;;;;;;3.33;56.31;101493.38;4975413;28;20030;-65
2022/03/11 04:32:48;;;;;;;14.43;6.97;;;;;;;3.36;55.98;101492.41;4988796;28;20405;-72
2022/03/11 04:35:14;;;;;;;12.93;6.88;;;;;;;3.33;56.12;101484.41;4985229;28;20145;-65
2022/03/11 04:37:39;;;;;;;15.70;7.35;;;;;;;3.29;56.10;101474.69;4987502;28;20049;-71
2022/03/11 04:40:05;;;;;;;15.20;7.82;;;;;;;3.29;56.63;101477.38;4980484;28;20033;-66
2022/03/11 04:42:31;;;;;;;14.02;6.88;;;;;;;3.29;56.48;101475.56;4985992;28;20038;-71
2022/03/11 04:44:56;;;;;;;15.93;8.32;;;;;;;3.31;56.75;101481.78;4973996;28;20100;-65
2022/03/11 04:47:22;;;;;;;15.75;6.85;;;;;;;3.35;56.17;101479.84;4987716;28;20026;-65
2022/03/11 04:49:52;;;;;;;14.63;7.15;;;;;;;3.37;56.03;101477.16;4983819;28;20034;-66
2022/03/11 04:52:18;;;;;;;12.73;7.28;;;;;;;3.36;55.92;101476.25;4979395;28;20046;-71
2022/03/11 04:54:43;;;;;;;13.85;7.60;;;;;;;3.37;56.27;101485.22;4977792;28;20050;-65
2022/03/11 04:57:09;;;;;;;14.73;6.75;;;;;;;3.36;56.08;101478.03;4986276;28;20042;-65
2022/03/11 04:59:34;;;;;;;17.27;6.75;;;;;;;3.38;55.92;101474.41;4981003;28;20034;-72
2022/03/11 05:01:59;;;;;;;14.48;6.78;;;;;;;3.38;56.13;101473.50;4988275;28;20161;-71
2022/03/11 05:04:25;;;;;;;14.07;6.68;;;;;;;3.42;55.65;101469.81;4981585;28;20034;-68
2022/03/11 05:06:50;;;;;;;14.43;6.47;;;;;;;3.43;55.70;101475.13;4974934;28;20042;-72
2022/03/11 05:09:15;;;;;;;16.10;7.70;;;;;;;3.42;55.78;101475.19;4978082;28;20054;-65
2022/03/11 05:11:40;;;;;;;21.98;7.75;;;;;;;3.38;56.00;101473.50;4983986;28;20050;-71
2022/03/11 05:14:06;;;;;;;16.02;6.38;;;;;;;3.38;55.77;101466.31;4983681;28;20046;-71
2022/03/11 05:16:31;;;;;;;13.43;6.93;;;;;;;3.40;55.60;101472.53;4983051;28;20038;-65
2022/03/11 05:18:57;;;;;;;16.55;6.78;;;;;;;3.42;56.02;101470.69;4987000;28;20046;-70
2022/03/11 05:21:23;;;;;;;17.73;6.80;;;;;;;3.43;55.74;101471.56;4987187;28;20068;-71
2022/03/11 05:23:48;;;;;;;13.40;6.97;;;;;;;3.43;56.09;101467.06;4985038;28;20121;-67
2022/03/11 05:26:26;;;;;;;13.32;5.95;;;;;;;3.40;56.19;101467.13;4988149;28;20070;-65
2022/03/11 05:28:57;;;;;;;13.27;6.65;;;;;;;3.41;55.87;101462.66;4984529;28;20046;-71
2022/03/11 05:31:24;;;;;;;14.88;7.20;;;;;;;3.46;55.51;101463.41;4986429;28;20038;-72
2022/03/11 05:33:50;;;;;;;28.27;8.00;;;;;;;3.48;55.33;101462.41;4986485;28;20035;-71
2022/03/11 05:36:16;;;;;;;13.35;6.45;;;;;;;3.49;55.54;101452.50;4984957;28;20018;-71
2022/03/11 05:38:42;;;;;;;14.68;6.57;;;;;;;3.51;55.73;101453.34;4984781;28;20140;-71
2022/03/11 05:41:07;;;;;;;12.40;6.28;;;;;;;3.49;55.77;101453.38;4988915;28;20070;-64
2022/03/11 05:43:32;;;;;;;16.80;6.95;;;;;;;3.50;55.75;101457.88;4981301;28;20467;-65
2022/03/11 05:45:58;;;;;;;13.55;6.00;;;;;;;3.47;55.90;101457.94;4986490;28;20398;-66
2022/03/11 05:48:23;;;;;;;12.75;6.22;;;;;;;3.48;56.19;101456.13;4984267;28;20049;-69
2022/03/11 05:50:49;;;;;;;14.80;6.78;;;;;;;3.51;55.95;101462.31;4973529;28;20038;-64
2022/03/11 05:53:15;;;;;;;14.32;6.78;;;;;;;3.48;56.20;101450.75;4988834;28;20105;-65
2022/03/11 05:55:41;;;;;;;14.77;6.53;;;;;;;3.49;56.34;101453.38;4982630;28;20030;-70
2022/03/11 05:58:06;;;;;;;15.85;6.47;;;;;;;3.49;56.04;101457.91;4988379;28;20072;-71
2022/03/11 06:00:31;;;;;;;15.38;6.63;;;;;;;3.49;56.33;101455.19;4987601;28;20042;-66
2022/03/11 06:02:56;;;;;;;16.83;6.63;;;;;;;3.48;56.24;101451.63;4988269;28;20097;-73
2022/03/11 06:05:22;;;;;;;14.60;6.32;;;;;;;3.48;56.46;101450.75;4975133;28;20034;-66
2022/03/11 06:07:47;;;;;;;15.27;6.90;;;;;;;3.48;56.51;101445.38;4986750;28;20061;-65
2022/03/11 06:10:12;;;;;;;13.18;6.00;;;;;;;3.50;56.34;101446.22;4978678;28;20474;-71
2022/03/11 06:12:38;;;;;;;14.93;6.90;;;;;;;3.50;57.13;101449.78;4989282;28;20505;-72
2022/03/11 06:15:14;;;;;;;16.25;7.10;;;;;;;3.50;56.63;101444.41;4980196;28;20042;-65
2022/03/11 06:17:40;;;;;;;12.63;6.35;;;;;;;3.55;56.46;101449.63;4989530;28;20537;-71
2022/03/11 06:20:08;;;;;;;16.30;7.38;;;;;;;3.60;56.40;101449.47;4985303;28;20180;-65
2022/03/11 06:22:36;;;;;;;14.63;7.53;;;;;;;3.64;56.47;101460.09;4984617;28;20038;-71
2022/03/11 06:25:04;;;;;;;13.93;6.57;;;;;;;3.66;56.42;101455.53;4993482;28;20236;-65
2022/03/11 06:27:29;;;;;;;20.42;7.93;;;;;;;3.69;56.34;101466.19;4986333;28;20084;-67
2022/03/11 06:29:55;;;;;;;15.57;6.43;;;;;;;3.70;56.62;101462.56;4980498;28;20043;-66
2022/03/11 06:32:20;;;;;;;13.80;6.70;;;;;;;3.72;56.40;101467.88;4989832;28;20504;-65
2022/03/11 06:34:48;;;;;;;11.20;6.50;;;;;;;3.76;56.82;101456.09;4988783;28;20461;-67
2022/03/11 06:37:14;;;;;;;13.82;6.65;;;;;;;3.77;56.74;101452.44;4983323;28;20042;-73
2022/03/11 06:39:39;;;;;;;17.35;7.32;;;;;;;3.79;57.34;101454.19;4983292;28;20478;-65
2022/03/11 06:42:05;;;;;;;15.05;7.15;;;;;;;3.80;57.01;101455.94;4985572;28;20491;-67
2022/03/11 06:44:31;;;;;;;13.60;6.95;;;;;;;3.86;57.05;101448.56;4980465;28;20065;-67
2022/03/11 06:46:57;;;;;;;15.40;7.00;;;;;;;3.95;56.85;101454.50;4976000;28;20053;-70
2022/03/11 06:49:22;;;;;;;15.90;6.78;;;;;;;3.99;56.85;101457.97;4989179;28;20066;-65
2022/03/11 06:51:47;;;;;;;16.63;6.55;;;;;;;4.03;56.73;101449.75;4987497;28;20034;-65
2022/03/11 06:54:13;;;;;;;17.60;7.57;;;;;;;4.08;56.67;101445.06;4980541;28;20030;-66
2022/03/11 06:56:38;;;;;;;16.77;7.50;;;;;;;4.17;56.53;101451.94;4983029;28;20069;-65
2022/03/11 06:59:07;;;;;;;16.33;7.05;;;;;;;4.35;56.16;101451.25;4985145;28;20041;-72
2022/03/11 07:01:32;;;;;;;11.93;6.70;;;;;;;4.72;55.21;101454.41;4979183;28;20034;-71
2022/03/11 07:03:58;;;;;;;18.52;7.57;;;;;;;4.99;54.35;101447.94;4976508;28;20406;-66
2022/03/11 07:06:25;;;;;;;14.82;7.10;;;;;;;5.25;53.95;101452.25;4968254;28;20158;-66
2022/03/11 07:08:50;;;;;;;11.70;6.57;;;;;;;5.61;52.84;101444.47;4979379;28;20042;-66
2022/03/11 07:11:16;;;;;;;16.27;7.10;;;;;;;6.09;52.10;101435.22;4978409;28;20038;-65
2022/03/11 07:13:44;;;;;;;16.15;6.72;;;;;;;6.78;50.08;101432.06;4983826;28;20046;-72
2022/03/11 07:16:10;;;;;;;17.65;8.98;;;;;;;7.60;47.60;101429.84;4976414;28;20042;-71
2022/03/11 07:18:36;;;;;;;15.30;7.38;;;;;;;7.47;47.46;101423.28;4988098;28;20033;-65
2022/03/11 07:21:02;;;;;;;15.55;7.25;;;;;;;6.98;48.74;101427.53;4980665;28;20038;-72
2022/03/11 07:23:28;;;;;;;13.57;6.75;;;;;;;6.65;49.06;101425.47;4986462;28;20044;-66
2022/03/11 07:25:54;;;;;;;16.48;7.53;;;;;;;6.79;49.48;101436.50;4988479;28;20092;-66
2022/03/11 07:28:22;;;;;;;14.45;7.80;;;;;;;6.84;49.33;101434.47;4987999;28;20068;-71
2022/03/11 07:30:48;;;;;;;15.02;7.18;;;;;;;6.88;49.48;101437.91;4978465;28;20079;-72
2022/03/11 07:33:13;;;;;;;15.63;7.47;;;;;;;6.95;49.49;101435.78;4985802;28;20528;-72
2022/03/11 07:35:39;;;;;;;15.55;8.43;;;;;;;7.19;48.74;101437.31;4986437;28;20425;-72
2022/03/11 07:38:05;;;;;;;15.35;7.72;;;;;;;7.49;48.06;101434.91;4988799;28;20092;-71
2022/03/11 07:40:31;;;;;;;18.52;7.10;;;;;;;7.96;47.66;101430.72;4988236;28;20108;-66
2022/03/11 07:42:56;;;;;;;18.48;8.02;;;;;;;8.31;46.18;101431.56;5005361;28;20034;-66
2022/03/11 07:45:22;;;;;;;19.77;8.00;;;;;;;8.82;45.25;101432.44;4993658;28;20132;-64
2022/03/11 07:47:47;;;;;;;16.67;7.60;;;;;;;9.20;43.65;101428.41;4999091;28;20069;-72
2022/03/11 07:50:13;;;;;;;17.90;7.95;;;;;;;9.11;44.00;101422.66;4985018;28;20995;-71
2022/03/11 07:52:39;;;;;;;15.38;7.53;;;;;;;9.07;44.97;101426.50;4988613;28;20042;-73
2022/03/11 07:55:09;;;;;;;19.58;9.05;;;;;;;8.86;44.97;101426.75;4985495;28;20061;-66
2022/03/11 07:57:36;;;;;;;18.65;8.60;;;;;;;8.60;45.55;101425.47;4988044;28;20041;-66
2022/03/11 08:00:04;;;;;;;20.00;8.63;;;;;;;8.31;45.75;101418.91;4976636;28;20457;-66
2022/03/11 08:02:39;;;;;;;15.50;8.35;;;;;;;8.17;46.47;101416.94;4992394;28;20068;-65
2022/03/11 08:05:05;;;;;;;20.45;8.38;;;;;;;8.09;47.36;101416.44;4997930;28;20041;-67
2022/03/11 08:07:31;;;;;;;16.15;8.13;;;;;;;8.06;47.26;101415.72;5004216;28;20061;-66
2022/03/11 08:09:56;;;;;;;41.15;9.43;;;;;;;8.09;47.63;101412.88;4989220;28;20042;-65
2022/03/11 08:12:21;;;;;;;20.90;8.68;;;;;;;8.13;46.73;101399.06;4989535;28;20038;-65
2022/03/11 08:14:47;;;;;;;19.80;9.18;;;;;;;8.15;46.74;101409.81;4980434;28;20066;-67
2022/03/11 08:17:13;;;;;;;18.98;8.20;;;;;;;8.25;46.60;101399.34;4984805;28;20030;-69
2022/03/11 08:19:38;;;;;;;22.55;8.40;;;;;;;8.27;46.77;101400.16;4989945;28;20017;-71
2022/03/11 08:22:04;;;;;;;17.85;8.57;;;;;;;8.29;47.13;101411.78;4989149;28;20038;-65
2022/03/11 08:24:29;;;;;;;20.20;9.13;;;;;;;8.36;47.22;101406.00;4978380;28;20492;-66
2022/03/11 08:26:55;;;;;;;18.50;8.70;;;;;;;8.51;46.60;101412.41;4988693;28;20038;-65
2022/03/11 08:29:21;;;;;;;20.15;9.63;;;;;;;8.56;46.43;101399.47;4985067;28;20446;-71
2022/03/11 08:31:49;;;;;;;14.25;8.48;;;;;;;8.65;46.56;101403.53;4996397;28;20053;-72
2022/03/11 08:34:15;;;;;;;17.83;8.57;;;;;;;8.68;46.27;101409.66;4996634;28;20030;-65
2022/03/11 08:36:41;;;;;;;16.35;9.00;;;;;;;8.72;45.81;101385.06;5001385;28;20044;-73
2022/03/11 08:39:07;;;;;;;18.52;9.73;;;;;;;8.77;46.06;101389.28;4988096;28;20409;-72
2022/03/11 08:41:33;;;;;;;18.65;9.45;;;;;;;8.78;46.11;101392.88;4979843;28;20030;-66
2022/03/11 08:43:59;;;;;;;16.98;8.55;;;;;;;8.85;47.32;101389.69;4973645;28;20046;-71
2022/03/11 08:46:26;;;;;;;17.20;9.02;;;;;;;9.02;47.30;101387.88;4971630;28;20054;-67
2022/03/11 08:48:52;;;;;;;17.23;9.45;;;;;;;9.16;46.09;101383.41;5000496;28;20049;-66
2022/03/11 08:51:18;;;;;;;17.75;9.90;;;;;;;9.25;46.41;101387.44;4998303;28;20045;-67
2022/03/11 08:53:44;;;;;;;19.75;8.35;;;;;;;9.45;46.31;101389.84;4997830;28;20398;-66
2022/03/11 08:56:10;;;;;;;17.75;9.70;;;;;;;9.62;45.50;101377.13;4988006;28;20037;-65
2022/03/11 08:58:35;;;;;;;15.75;8.32;;;;;;;9.69;45.08;101390.22;4986092;28;20033;-65
2022/03/11 09:01:00;;;;;;;17.83;9.07;;;;;;;9.77;44.53;101391.63;4983257;28;20044;-73
2022/03/11 09:03:26;;;;;;;16.98;10.07;;;;;;;9.82;44.86;101381.34;4987861;28;20068;-67
2022/03/11 09:05:51;;;;;;;18.30;9.32;;;;;;;9.94;45.49;101381.47;5002163;28;20041;-72
2022/03/11 09:08:17;;;;;;;16.00;8.82;;;;;;;10.11;45.86;101377.69;4997739;28;20041;-71
2022/03/11 09:10:42;;;;;;;19.90;9.07;;;;;;;10.21;44.10;101369.84;4976290;28;20562;-65
2022/03/11 09:13:08;;;;;;;15.40;9.02;;;;;;;10.21;44.39;101364.41;4988136;28;20041;-66
2022/03/11 09:15:33;;;;;;;20.63;9.95;;;;;;;10.20;44.51;101368.97;4991963;28;20022;-68
2022/03/11 09:17:59;;;;;;;17.98;9.15;;;;;;;10.25;45.70;101366.00;4997050;28;20073;-71
2022/03/11 09:20:26;;;;;;;14.70;9.02;;;;;;;10.33;44.59;101363.66;5001193;28;20110;-66
2022/03/11 09:22:53;;;;;;;17.15;9.35;;;;;;;10.38;44.81;101363.38;4998341;28;20504;-66
2022/03/11 09:25:18;;;;;;;18.40;8.82;;;;;;;10.46;44.08;101358.34;4985263;28;20038;-65
2022/03/11 09:27:45;;;;;;;21.13;10.98;;;;;;;10.53;43.97;101366.97;4990256;28;20812;-71
2022/03/11 09:30:11;;;;;;;17.58;9.20;;;;;;;10.61;44.24;101360.06;4983357;28;20042;-66
2022/03/11 09:32:39;;;;;;;18.42;11.82;;;;;;;10.75;43.66;101353.72;4986875;28;20030;-73
2022/03/11 09:35:06;;;;;;;16.77;9.65;;;;;;;10.83;43.98;101351.41;5004673;28;20498;-70
2022/03/11 09:37:32;;;;;;;15.60;10.20;;;;;;;11.01;44.26;101352.03;4998991;28;20041;-65
2022/03/11 09:39:58;;;;;;;19.77;10.35;;;;;;;11.21;43.07;101353.41;4989697;28;20045;-71
2022/03/11 09:42:23;;;;;;;16.23;10.10;;;;;;;11.30;43.02;101344.63;4996081;28;20099;-72
2022/03/11 09:44:54;;;;;;;19.08;10.05;;;;;;;11.35;43.22;101344.31;4988573;28;20089;-72
2022/03/11 09:47:21;;;;;;;16.52;9.13;;;;;;;11.42;42.48;101343.81;5007952;28;20030;-66
2022/03/11 09:49:48;;;;;;;19.10;9.88;;;;;;;11.43;43.31;101336.50;5006322;28;20120;-73
2022/03/11 09:52:15;;;;;;;14.90;8.88;;;;;;;11.59;43.46;101339.03;5003674;28;20046;-65
2022/03/11 09:54:40;;;;;;;15.88;8.68;;;;;;;11.68;42.74;101320.19;4993127;28;20137;-71
2022/03/11 09:57:06;;;;;;;17.08;10.25;;;;;;;11.77;42.50;101324.16;4991332;28;20121;-68
2022/03/11 09:59:31;;;;;;;17.30;8.95;;;;;;;11.83;42.43;101320.13;4983538;28;20130;-65
2022/03/11 10:01:57;;;;;;;17.13;9.27;;;;;;;11.95;42.16;101311.09;4984595;28;20042;-66
2022/03/11 10:04:24;;;;;;;21.70;10.25;;;;;;;12.12;42.45;101309.88;4988659;28;20124;-65
2022/03/11 10:06:51;;;;;;;18.58;10.15;;;;;;;12.28;43.35;101306.94;4989130;28;20034;-71
2022/03/11 10:09:19;;;;;;;16.23;9.57;;;;;;;12.46;42.37;101311.94;4982450;28;20104;-66
2022/03/11 10:12:07;;;;;;;19.95;9.85;;;;;;;12.77;42.00;101299.63;4990992;28;20030;-71
2022/03/11 10:14:35;;;;;;;19.58;10.23;;;;;;;12.96;41.25;101296.41;4982622;28;20042;-66
2022/03/11 10:17:18;;;;;;;15.65;9.38;;;;;;;13.07;41.49;101298.31;5010520;28;20065;-65
2022/03/11 10:20:02;;;;;;;16.58;10.02;;;;;;;13.15;41.61;101284.06;4993239;28;20133;-73
2022/03/11 10:22:29;;;;;;;15.27;9.38;;;;;;;13.18;40.80;101283.84;5003068;28;20041;-72
2022/03/11 10:24:55;;;;;;;15.60;8.98;;;;;;;13.20;41.34;101281.88;4989166;28;20105;-71
2022/03/11 10:27:23;;;;;;;17.83;9.25;;;;;;;13.22;40.37;101282.66;4988220;28;20038;-65
2022/03/11 10:29:49;;;;;;;17.45;10.18;;;;;;;13.19;40.71;101280.09;4984017;28;20093;-73
2022/03/11 10:32:23;;;;;;;16.25;9.30;;;;;;;13.20;40.62;101274.56;4980715;28;20034;-73
2022/03/11 10:34:48;;;;;;;17.17;9.68;;;;;;;13.25;40.88;101271.50;4990165;28;20038;-71
2022/03/11 10:37:15;;;;;;;15.77;9.90;;;;;;;13.39;40.65;101281.38;4992428;28;20021;-72
2022/03/11 10:39:42;;;;;;;20.05;8.85;;;;;;;13.58;40.80;101272.59;4986244;28;20046;-72
2022/03/11 10:42:24;;;;;;;20.95;10.38;;;;;;;13.82;41.19;101270.66;4995809;28;20053;-73
2022/03/11 10:44:58;;;;;;;16.60;10.35;;;;;;;14.10;40.30;101260.25;4981980;28;20547;-66
2022/03/11 10:47:29;;;;;;;14.52;9.30;;;;;;;14.06;40.04;101259.63;4989132;28;20034;-70
2022/03/11 10:49:57;;;;;;;17.35;10.00;;;;;;;14.18;39.25;101255.91;4984103;28;20046;-71
2022/03/11 10:52:37;;;;;;;19.55;9.80;;;;;;;14.31;40.04;101261.22;4985693;28;20065;-73
2022/03/11 10:55:26;;;;;;;15.70;10.10;;;;;;;14.42;39.80;101255.75;4976867;28;20046;-74
2022/03/11 10:57:59;;;;;;;19.33;10.63;;;;;;;14.50;38.55;101245.09;4989425;28;20042;-73
2022/03/11 11:00:30;;;;;;;19.13;9.50;;;;;;;14.55;39.10;101247.44;4962432;28;20062;-65
2022/03/11 11:03:01;;;;;;;20.70;10.10;;;;;;;14.71;39.07;101238.81;4988336;28;20042;-65
2022/03/11 11:05:28;;;;;;;16.17;10.60;;;;;;;14.78;38.95;101240.03;4985438;28;20078;-73
2022/03/11 11:07:55;;;;;;;15.85;9.65;;;;;;;14.78;38.72;101237.28;4989768;28;20584;-69
2022/03/11 11:10:22;;;;;;;17.70;10.23;;;;;;;14.83;38.27;101236.91;4981800;28;20053;-67
2022/03/11 11:12:49;;;;;;;18.55;10.80;;;;;;;15.09;38.57;101241.06;4988424;28;20042;-72
2022/03/11 11:15:16;;;;;;;21.23;11.00;;;;;;;15.35;39.00;101235.22;4981887;28;20042;-66
2022/03/11 11:17:45;;;;;;;18.67;10.88;;;;;;;15.23;37.07;101229.78;5008839;28;20038;-71
2022/03/11 11:20:44;;;;;;;17.48;10.52;;;;;;;15.21;37.66;101241.91;5000093;28;20509;-71